sensor_id;sensor_type;location;lat;lon;timestamp;temperature;humidity
52765;DHT22;38650;44.536;18.664;2022-09-02T00:01:33;17.90;99.90
52765;DHT22;38650;44.536;18.664;2022-09-02T00:04:02;17.90;99.90
52765;DHT22;38650;44.536;18.664;2022-09-02T00:06:30;17.90;99.90
52765;DHT22;38650;44.536;18.664;2022-09-02T00:08:56;18.00;99.90
52765;DHT22;38650;44.536;18.664;2022-09-02T00:11:25;18.00;99.90
52765;DHT22;38650;44.536;18.664;2022-09-02T00:13:52;18.00;99.90
52765;DHT22;38650;44.536;18.664;2022-09-02T00:16:18;18.00;99.90
52765;DHT22;38650;44.536;18.664;2022-09-02T00:18:43;18.00;99.90
52765;DHT22;38650;44.536;18.664;2022-09-02T00:21:10;17.90;99.90
52765;DHT22;38650;44.536;18.664;2022-09-02T00:23:39;18.00;99.90
52765;DHT22;38650;44.536;18.664;2022-09-02T00:26:05;17.90;99.90
52765;DHT22;38650;44.536;18.664;2022-09-02T00:28:30;17.90;99.90
52765;DHT22;38650;44.536;18.664;2022-09-02T00:30:56;17.90;99.90
52765;DHT22;38650;44.536;18.664;2022-09-02T00:33:22;17.80;99.90
52765;DHT22;38650;44.536;18.664;2022-09-02T00:35:48;17.70;99.90
52765;DHT22;38650;44.536;18.664;2022-09-02T00:38:14;17.60;99.90
52765;DHT22;38650;44.536;18.664;2022-09-02T00:40:44;17.70;99.90
52765;DHT22;38650;44.536;18.664;2022-09-02T00:43:11;17.70;99.90
52765;DHT22;38650;44.536;18.664;2022-09-02T00:45:46;17.80;99.90
52765;DHT22;38650;44.536;18.664;2022-09-02T00:48:11;17.70;99.90
52765;DHT22;38650;44.536;18.664;2022-09-02T00:50:37;17.70;99.90
52765;DHT22;38650;44.536;18.664;2022-09-02T00:53:07;17.70;99.90
52765;DHT22;38650;44.536;18.664;2022-09-02T00:55:43;17.70;99.90
52765;DHT22;38650;44.536;18.664;2022-09-02T00:58:17;17.80;99.90
52765;DHT22;38650;44.536;18.664;2022-09-02T01:00:46;17.80;99.90
52765;DHT22;38650;44.536;18.664;2022-09-02T01:03:15;17.80;99.90
52765;DHT22;38650;44.536;18.664;2022-09-02T01:05:44;17.80;99.90
52765;DHT22;38650;44.536;18.664;2022-09-02T01:08:20;17.70;99.90
52765;DHT22;38650;44.536;18.664;2022-09-02T01:10:48;17.70;99.90
52765;DHT22;38650;44.536;18.664;2022-09-02T01:13:18;17.80;99.90
52765;DHT22;38650;44.536;18.664;2022-09-02T01:15:49;17.70;99.90
52765;DHT22;38650;44.536;18.664;2022-09-02T01:18:20;17.70;99.90
52765;DHT22;38650;44.536;18.664;2022-09-02T01:20:47;17.60;99.90
52765;DHT22;38650;44.536;18.664;2022-09-02T01:23:14;17.60;99.90
52765;DHT22;38650;44.536;18.664;2022-09-02T01:25:41;17.50;99.90
52765;DHT22;38650;44.536;18.664;2022-09-02T01:28:11;17.40;99.90
52765;DHT22;38650;44.536;18.664;2022-09-02T01:30:42;17.30;99.90
52765;DHT22;38650;44.536;18.664;2022-09-02T01:33:08;17.30;99.90
52765;DHT22;38650;44.536;18.664;2022-09-02T01:35:35;17.40;99.90
52765;DHT22;38650;44.536;18.664;2022-09-02T01:38:01;17.40;99.90
52765;DHT22;38650;44.536;18.664;2022-09-02T01:40:28;17.40;99.90
52765;DHT22;38650;44.536;18.664;2022-09-02T01:43:00;17.50;99.90
52765;DHT22;38650;44.536;18.664;2022-09-02T01:45:27;17.50;99.90
52765;DHT22;38650;44.536;18.664;2022-09-02T01:47:54;17.50;99.90
52765;DHT22;38650;44.536;18.664;2022-09-02T01:50:19;17.50;99.90
52765;DHT22;38650;44.536;18.664;2022-09-02T01:52:45;17.50;99.90
52765;DHT22;38650;44.536;18.664;2022-09-02T01:55:11;17.60;99.90
52765;DHT22;38650;44.536;18.664;2022-09-02T01:57:37;17.60;99.90
52765;DHT22;38650;44.536;18.664;2022-09-02T02:00:05;17.60;99.90
52765;DHT22;38650;44.536;18.664;2022-09-02T02:02:32;17.50;99.90
52765;DHT22;38650;44.536;18.664;2022-09-02T02:04:58;17.60;99.90
52765;DHT22;38650;44.536;18.664;2022-09-02T02:07:24;17.50;99.90
52765;DHT22;38650;44.536;18.664;2022-09-02T02:09:50;17.50;99.90
52765;DHT22;38650;44.536;18.664;2022-09-02T02:12:17;17.30;99.90
52765;DHT22;38650;44.536;18.664;2022-09-02T02:14:43;17.40;99.90
52765;DHT22;38650;44.536;18.664;2022-09-02T02:17:09;17.40;99.90
52765;DHT22;38650;44.536;18.664;2022-09-02T02:19:35;17.40;99.90
52765;DHT22;38650;44.536;18.664;2022-09-02T02:22:01;17.40;99.90
52765;DHT22;38650;44.536;18.664;2022-09-02T02:24:27;17.40;99.90
52765;DHT22;38650;44.536;18.664;2022-09-02T02:26:53;17.40;99.90
52765;DHT22;38650;44.536;18.664;2022-09-02T02:29:19;17.40;99.90
52765;DHT22;38650;44.536;18.664;2022-09-02T02:31:45;17.40;99.90
52765;DHT22;38650;44.536;18.664;2022-09-02T02:34:10;17.40;99.90
52765;DHT22;38650;44.536;18.664;2022-09-02T02:36:37;17.30;99.90
52765;DHT22;38650;44.536;18.664;2022-09-02T02:39:05;17.30;99.90
52765;DHT22;38650;44.536;18.664;2022-09-02T02:41:32;17.30;99.90
52765;DHT22;38650;44.536;18.664;2022-09-02T02:43:58;17.30;99.90
52765;DHT22;38650;44.536;18.664;2022-09-02T02:46:23;17.30;99.90
52765;DHT22;38650;44.536;18.664;2022-09-02T02:48:49;17.30;99.90
52765;DHT22;38650;44.536;18.664;2022-09-02T02:51:15;17.30;99.90
52765;DHT22;38650;44.536;18.664;2022-09-02T02:53:41;17.30;99.90
52765;DHT22;38650;44.536;18.664;2022-09-02T02:56:07;17.40;99.90
52765;DHT22;38650;44.536;18.664;2022-09-02T02:58:33;17.30;99.90
52765;DHT22;38650;44.536;18.664;2022-09-02T03:00:59;17.30;99.90
52765;DHT22;38650;44.536;18.664;2022-09-02T03:03:26;17.20;99.90
52765;DHT22;38650;44.536;18.664;2022-09-02T03:05:53;17.20;99.90
52765;DHT22;38650;44.536;18.664;2022-09-02T03:08:20;17.20;99.90
52765;DHT22;38650;44.536;18.664;2022-09-02T03:10:47;17.30;99.90
52765;DHT22;38650;44.536;18.664;2022-09-02T03:13:14;17.30;99.90
52765;DHT22;38650;44.536;18.664;2022-09-02T03:15:40;17.30;99.90
52765;DHT22;38650;44.536;18.664;2022-09-02T03:18:07;17.20;99.90
52765;DHT22;38650;44.536;18.664;2022-09-02T03:20:33;17.20;99.90
52765;DHT22;38650;44.536;18.664;2022-09-02T03:23:00;17.30;99.90
52765;DHT22;38650;44.536;18.664;2022-09-02T03:25:27;17.30;99.90
52765;DHT22;38650;44.536;18.664;2022-09-02T03:27:53;17.30;99.90
52765;DHT22;38650;44.536;18.664;2022-09-02T03:30:23;17.30;99.90
52765;DHT22;38650;44.536;18.664;2022-09-02T03:32:50;17.40;99.90
52765;DHT22;38650;44.536;18.664;2022-09-02T03:35:18;17.30;99.90
52765;DHT22;38650;44.536;18.664;2022-09-02T03:37:45;17.30;99.90
52765;DHT22;38650;44.536;18.664;2022-09-02T03:40:15;17.40;99.90
52765;DHT22;38650;44.536;18.664;2022-09-02T03:42:41;17.40;99.90
52765;DHT22;38650;44.536;18.664;2022-09-02T03:45:08;17.30;99.90
52765;DHT22;38650;44.536;18.664;2022-09-02T03:47:35;17.40;99.90
52765;DHT22;38650;44.536;18.664;2022-09-02T03:50:02;17.30;99.90
52765;DHT22;38650;44.536;18.664;2022-09-02T03:52:28;17.40;99.90
52765;DHT22;38650;44.536;18.664;2022-09-02T03:54:54;17.40;99.90
52765;DHT22;38650;44.536;18.664;2022-09-02T03:57:20;17.30;99.90
52765;DHT22;38650;44.536;18.664;2022-09-02T03:59:47;17.30;99.90
52765;DHT22;38650;44.536;18.664;2022-09-02T04:02:13;17.20;99.90
52765;DHT22;38650;44.536;18.664;2022-09-02T04:04:39;17.20;99.90
52765;DHT22;38650;44.536;18.664;2022-09-02T04:07:04;17.20;99.90
52765;DHT22;38650;44.536;18.664;2022-09-02T04:09:30;17.20;99.90
52765;DHT22;38650;44.536;18.664;2022-09-02T04:11:56;17.20;99.90
52765;DHT22;38650;44.536;18.664;2022-09-02T04:14:22;17.10;99.90
52765;DHT22;38650;44.536;18.664;2022-09-02T04:16:47;17.10;99.90
52765;DHT22;38650;44.536;18.664;2022-09-02T04:19:13;17.00;99.90
52765;DHT22;38650;44.536;18.664;2022-09-02T04:21:40;17.10;99.90
52765;DHT22;38650;44.536;18.664;2022-09-02T04:24:08;17.20;99.90
52765;DHT22;38650;44.536;18.664;2022-09-02T04:26:34;17.20;99.90
52765;DHT22;38650;44.536;18.664;2022-09-02T04:29:01;17.20;99.90
52765;DHT22;38650;44.536;18.664;2022-09-02T04:31:27;17.20;99.90
52765;DHT22;38650;44.536;18.664;2022-09-02T04:33:55;17.20;99.90
52765;DHT22;38650;44.536;18.664;2022-09-02T04:36:22;17.30;99.90
52765;DHT22;38650;44.536;18.664;2022-09-02T04:38:48;17.20;99.90
52765;DHT22;38650;44.536;18.664;2022-09-02T04:41:16;17.30;99.90
52765;DHT22;38650;44.536;18.664;2022-09-02T04:43:42;17.20;99.90
52765;DHT22;38650;44.536;18.664;2022-09-02T04:46:11;17.20;99.90
52765;DHT22;38650;44.536;18.664;2022-09-02T04:48:37;17.30;99.90
52765;DHT22;38650;44.536;18.664;2022-09-02T04:51:08;17.20;99.90
52765;DHT22;38650;44.536;18.664;2022-09-02T04:53:35;17.20;99.90
52765;DHT22;38650;44.536;18.664;2022-09-02T04:56:05;17.20;99.90
52765;DHT22;38650;44.536;18.664;2022-09-02T04:58:33;17.10;99.90
52765;DHT22;38650;44.536;18.664;2022-09-02T05:00:58;17.10;99.90
52765;DHT22;38650;44.536;18.664;2022-09-02T05:03:24;17.00;99.90
52765;DHT22;38650;44.536;18.664;2022-09-02T05:06:05;17.00;99.90
52765;DHT22;38650;44.536;18.664;2022-09-02T05:08:32;17.10;99.90
52765;DHT22;38650;44.536;18.664;2022-09-02T05:10:58;17.20;99.90
52765;DHT22;38650;44.536;18.664;2022-09-02T05:13:24;17.10;99.90
52765;DHT22;38650;44.536;18.664;2022-09-02T05:15:51;17.20;99.90
52765;DHT22;38650;44.536;18.664;2022-09-02T05:18:17;17.20;99.90
52765;DHT22;38650;44.536;18.664;2022-09-02T05:20:42;17.20;99.90
52765;DHT22;38650;44.536;18.664;2022-09-02T05:23:09;17.30;99.90
52765;DHT22;38650;44.536;18.664;2022-09-02T05:25:37;17.30;99.90
52765;DHT22;38650;44.536;18.664;2022-09-02T05:28:04;17.40;99.90
52765;DHT22;38650;44.536;18.664;2022-09-02T05:30:30;17.30;99.90
52765;DHT22;38650;44.536;18.664;2022-09-02T05:32:56;17.10;99.90
52765;DHT22;38650;44.536;18.664;2022-09-02T05:35:22;17.10;99.90
52765;DHT22;38650;44.536;18.664;2022-09-02T05:37:47;17.20;99.90
52765;DHT22;38650;44.536;18.664;2022-09-02T05:40:13;17.10;99.90
52765;DHT22;38650;44.536;18.664;2022-09-02T05:42:39;17.20;99.90
52765;DHT22;38650;44.536;18.664;2022-09-02T05:45:06;17.20;99.90
52765;DHT22;38650;44.536;18.664;2022-09-02T05:47:33;17.20;99.90
52765;DHT22;38650;44.536;18.664;2022-09-02T05:49:59;17.10;99.90
52765;DHT22;38650;44.536;18.664;2022-09-02T05:52:27;17.20;99.90
52765;DHT22;38650;44.536;18.664;2022-09-02T05:54:53;17.20;99.90
52765;DHT22;38650;44.536;18.664;2022-09-02T05:57:20;17.30;99.90
52765;DHT22;38650;44.536;18.664;2022-09-02T05:59:47;17.30;99.90
52765;DHT22;38650;44.536;18.664;2022-09-02T06:02:16;17.30;99.90
52765;DHT22;38650;44.536;18.664;2022-09-02T06:04:45;17.40;99.90
52765;DHT22;38650;44.536;18.664;2022-09-02T06:07:12;17.40;99.90
52765;DHT22;38650;44.536;18.664;2022-09-02T06:09:38;17.40;99.90
52765;DHT22;38650;44.536;18.664;2022-09-02T06:12:06;17.40;99.90
52765;DHT22;38650;44.536;18.664;2022-09-02T06:14:32;17.40;99.90
52765;DHT22;38650;44.536;18.664;2022-09-02T06:16:58;17.40;99.90
52765;DHT22;38650;44.536;18.664;2022-09-02T06:19:25;17.30;99.90
52765;DHT22;38650;44.536;18.664;2022-09-02T06:21:53;17.30;99.90
52765;DHT22;38650;44.536;18.664;2022-09-02T06:24:19;17.30;99.90
52765;DHT22;38650;44.536;18.664;2022-09-02T06:26:45;17.30;99.90
52765;DHT22;38650;44.536;18.664;2022-09-02T06:29:11;17.30;99.90
52765;DHT22;38650;44.536;18.664;2022-09-02T06:31:40;17.30;99.90
52765;DHT22;38650;44.536;18.664;2022-09-02T06:34:06;17.40;99.90
52765;DHT22;38650;44.536;18.664;2022-09-02T06:36:33;17.40;99.90
52765;DHT22;38650;44.536;18.664;2022-09-02T06:39:02;17.40;99.90
52765;DHT22;38650;44.536;18.664;2022-09-02T06:41:30;17.50;99.90
52765;DHT22;38650;44.536;18.664;2022-09-02T06:44:00;17.50;99.90
52765;DHT22;38650;44.536;18.664;2022-09-02T06:46:29;17.60;99.90
52765;DHT22;38650;44.536;18.664;2022-09-02T06:48:56;17.50;99.90
52765;DHT22;38650;44.536;18.664;2022-09-02T06:51:27;17.50;99.90
52765;DHT22;38650;44.536;18.664;2022-09-02T06:53:54;17.50;99.90
52765;DHT22;38650;44.536;18.664;2022-09-02T06:56:20;17.40;99.90
52765;DHT22;38650;44.536;18.664;2022-09-02T06:58:49;17.40;99.90
52765;DHT22;38650;44.536;18.664;2022-09-02T07:01:23;17.30;99.90
52765;DHT22;38650;44.536;18.664;2022-09-02T07:03:49;17.30;99.90
52765;DHT22;38650;44.536;18.664;2022-09-02T07:06:35;17.40;99.90
52765;DHT22;38650;44.536;18.664;2022-09-02T07:09:06;17.40;99.90
52765;DHT22;38650;44.536;18.664;2022-09-02T07:11:33;17.40;99.90
52765;DHT22;38650;44.536;18.664;2022-09-02T07:13:59;17.50;99.90
52765;DHT22;38650;44.536;18.664;2022-09-02T07:16:27;17.50;99.90
52765;DHT22;38650;44.536;18.664;2022-09-02T07:18:54;17.50;99.90
52765;DHT22;38650;44.536;18.664;2022-09-02T07:21:20;17.60;99.90
52765;DHT22;38650;44.536;18.664;2022-09-02T07:23:46;17.60;99.90
52765;DHT22;38650;44.536;18.664;2022-09-02T07:26:14;17.60;99.90
52765;DHT22;38650;44.536;18.664;2022-09-02T07:28:40;17.60;99.90
52765;DHT22;38650;44.536;18.664;2022-09-02T07:31:10;17.70;99.90
52765;DHT22;38650;44.536;18.664;2022-09-02T07:33:37;17.80;99.90
52765;DHT22;38650;44.536;18.664;2022-09-02T07:36:06;17.80;99.90
52765;DHT22;38650;44.536;18.664;2022-09-02T07:38:37;18.00;99.90
52765;DHT22;38650;44.536;18.664;2022-09-02T07:41:05;18.10;99.90
52765;DHT22;38650;44.536;18.664;2022-09-02T07:43:32;18.10;99.90
52765;DHT22;38650;44.536;18.664;2022-09-02T07:46:03;18.10;99.90
52765;DHT22;38650;44.536;18.664;2022-09-02T07:48:30;18.10;99.90
52765;DHT22;38650;44.536;18.664;2022-09-02T07:50:57;18.10;99.90
52765;DHT22;38650;44.536;18.664;2022-09-02T07:53:23;18.10;99.90
52765;DHT22;38650;44.536;18.664;2022-09-02T07:55:49;17.90;99.90
52765;DHT22;38650;44.536;18.664;2022-09-02T07:58:17;18.00;99.90
52765;DHT22;38650;44.536;18.664;2022-09-02T08:00:45;18.10;99.90
52765;DHT22;38650;44.536;18.664;2022-09-02T08:03:12;18.20;99.90
52765;DHT22;38650;44.536;18.664;2022-09-02T08:05:38;18.30;99.90
52765;DHT22;38650;44.536;18.664;2022-09-02T08:08:05;18.30;99.90
52765;DHT22;38650;44.536;18.664;2022-09-02T08:10:31;18.30;99.90
52765;DHT22;38650;44.536;18.664;2022-09-02T08:12:58;18.30;99.90
52765;DHT22;38650;44.536;18.664;2022-09-02T08:15:36;18.30;99.90
52765;DHT22;38650;44.536;18.664;2022-09-02T08:18:04;18.10;99.90
52765;DHT22;38650;44.536;18.664;2022-09-02T08:20:31;17.90;99.90
52765;DHT22;38650;44.536;18.664;2022-09-02T08:22:57;17.90;99.90
52765;DHT22;38650;44.536;18.664;2022-09-02T08:25:24;17.80;99.90
52765;DHT22;38650;44.536;18.664;2022-09-02T08:27:50;17.80;99.90
52765;DHT22;38650;44.536;18.664;2022-09-02T08:30:17;17.90;99.90
52765;DHT22;38650;44.536;18.664;2022-09-02T08:32:43;18.00;99.90
52765;DHT22;38650;44.536;18.664;2022-09-02T08:35:10;18.00;99.90
52765;DHT22;38650;44.536;18.664;2022-09-02T08:37:36;18.00;99.90
52765;DHT22;38650;44.536;18.664;2022-09-02T08:40:06;18.10;99.90
52765;DHT22;38650;44.536;18.664;2022-09-02T08:42:45;18.10;99.90
52765;DHT22;38650;44.536;18.664;2022-09-02T08:45:29;18.00;99.90
52765;DHT22;38650;44.536;18.664;2022-09-02T08:50:36;18.00;99.90
52765;DHT22;38650;44.536;18.664;2022-09-02T08:55:58;18.10;99.90
52765;DHT22;38650;44.536;18.664;2022-09-02T08:58:31;18.10;99.90
52765;DHT22;38650;44.536;18.664;2022-09-02T09:03:33;18.10;99.90
52765;DHT22;38650;44.536;18.664;2022-09-02T09:06:19;18.00;99.90
52765;DHT22;38650;44.536;18.664;2022-09-02T09:14:10;18.00;99.90
52765;DHT22;38650;44.536;18.664;2022-09-02T09:19:15;18.10;99.90
52765;DHT22;38650;44.536;18.664;2022-09-02T09:21:42;18.10;99.90
52765;DHT22;38650;44.536;18.664;2022-09-02T09:27:18;17.90;99.90
52765;DHT22;38650;44.536;18.664;2022-09-02T09:29:44;17.70;99.90
52765;DHT22;38650;44.536;18.664;2022-09-02T09:32:31;17.70;99.90
52765;DHT22;38650;44.536;18.664;2022-09-02T09:34:59;17.80;99.90
52765;DHT22;38650;44.536;18.664;2022-09-02T09:37:34;17.80;99.90
52765;DHT22;38650;44.536;18.664;2022-09-02T09:40:00;17.80;99.90
52765;DHT22;38650;44.536;18.664;2022-09-02T09:45:28;17.80;99.90
52765;DHT22;38650;44.536;18.664;2022-09-02T09:48:17;17.80;99.90
52765;DHT22;38650;44.536;18.664;2022-09-02T09:50:48;17.80;99.90
52765;DHT22;38650;44.536;18.664;2022-09-02T09:53:34;17.80;99.90
52765;DHT22;38650;44.536;18.664;2022-09-02T09:58:45;17.80;99.90
52765;DHT22;38650;44.536;18.664;2022-09-02T10:01:31;17.80;99.90
52765;DHT22;38650;44.536;18.664;2022-09-02T10:04:27;17.90;99.90
52765;DHT22;38650;44.536;18.664;2022-09-02T10:06:52;18.00;99.90
52765;DHT22;38650;44.536;18.664;2022-09-02T10:12:01;18.20;99.90
52765;DHT22;38650;44.536;18.664;2022-09-02T10:31:31;18.80;99.90
52765;DHT22;38650;44.536;18.664;2022-09-02T10:36:45;18.90;99.90
52765;DHT22;38650;44.536;18.664;2022-09-02T10:41:56;18.80;99.90
52765;DHT22;38650;44.536;18.664;2022-09-02T10:44:30;18.80;99.90
52765;DHT22;38650;44.536;18.664;2022-09-02T10:47:09;19.10;99.90
52765;DHT22;38650;44.536;18.664;2022-09-02T10:58:18;19.90;99.90
52765;DHT22;38650;44.536;18.664;2022-09-02T11:00:52;20.30;99.90
52765;DHT22;38650;44.536;18.664;2022-09-02T11:03:29;20.70;99.90
52765;DHT22;38650;44.536;18.664;2022-09-02T11:08:52;21.60;99.90
52765;DHT22;38650;44.536;18.664;2022-09-02T11:12:24;21.90;99.90
52765;DHT22;38650;44.536;18.664;2022-09-02T11:17:46;22.30;99.90
52765;DHT22;38650;44.536;18.664;2022-09-02T11:34:02;23.80;99.90
52765;DHT22;38650;44.536;18.664;2022-09-02T11:36:30;23.70;97.60
52765;DHT22;38650;44.536;18.664;2022-09-02T11:39:28;23.50;97.00
52765;DHT22;38650;44.536;18.664;2022-09-02T11:52:58;22.70;97.30
52765;DHT22;38650;44.536;18.664;2022-09-02T11:55:36;22.50;99.40
52765;DHT22;38650;44.536;18.664;2022-09-02T11:58:03;22.20;97.70
52765;DHT22;38650;44.536;18.664;2022-09-02T12:03:26;21.80;98.40
52765;DHT22;38650;44.536;18.664;2022-09-02T12:06:10;21.70;98.90
52765;DHT22;38650;44.536;18.664;2022-09-02T12:11:54;21.60;98.50
52765;DHT22;38650;44.536;18.664;2022-09-02T12:13:55;21.50;99.50
52765;DHT22;38650;44.536;18.664;2022-09-02T12:21:25;21.10;99.90
52765;DHT22;38650;44.536;18.664;2022-09-02T12:26:27;21.10;99.90
52765;DHT22;38650;44.536;18.664;2022-09-02T12:31:42;21.10;99.90
52765;DHT22;38650;44.536;18.664;2022-09-02T12:36:56;21.20;99.90
52765;DHT22;38650;44.536;18.664;2022-09-02T12:50:05;20.90;99.90
52765;DHT22;38650;44.536;18.664;2022-09-02T12:55:15;20.70;99.90
52765;DHT22;38650;44.536;18.664;2022-09-02T12:57:45;20.70;99.90
52765;DHT22;38650;44.536;18.664;2022-09-02T13:00:14;20.60;99.90
52765;DHT22;38650;44.536;18.664;2022-09-02T13:03:01;20.50;99.90
52765;DHT22;38650;44.536;18.664;2022-09-02T13:05:53;20.50;99.90
52765;DHT22;38650;44.536;18.664;2022-09-02T13:08:49;20.40;99.90
52765;DHT22;38650;44.536;18.664;2022-09-02T13:11:41;20.40;99.90
52765;DHT22;38650;44.536;18.664;2022-09-02T13:31:17;20.20;99.90
52765;DHT22;38650;44.536;18.664;2022-09-02T13:33:44;20.20;99.90
52765;DHT22;38650;44.536;18.664;2022-09-02T13:36:10;20.20;99.90
52765;DHT22;38650;44.536;18.664;2022-09-02T13:38:43;20.30;99.90
52765;DHT22;38650;44.536;18.664;2022-09-02T13:41:09;20.30;99.90
52765;DHT22;38650;44.536;18.664;2022-09-02T13:43:34;20.30;99.90
52765;DHT22;38650;44.536;18.664;2022-09-02T13:46:01;20.30;99.90
52765;DHT22;38650;44.536;18.664;2022-09-02T13:48:32;20.00;99.90
52765;DHT22;38650;44.536;18.664;2022-09-02T13:51:12;19.80;99.90
52765;DHT22;38650;44.536;18.664;2022-09-02T13:53:43;20.00;99.90
52765;DHT22;38650;44.536;18.664;2022-09-02T13:56:12;20.30;99.90
52765;DHT22;38650;44.536;18.664;2022-09-02T13:58:43;20.40;99.90
52765;DHT22;38650;44.536;18.664;2022-09-02T14:01:32;20.50;99.90
52765;DHT22;38650;44.536;18.664;2022-09-02T14:04:02;20.40;99.90
52765;DHT22;38650;44.536;18.664;2022-09-02T14:06:37;20.30;99.90
52765;DHT22;38650;44.536;18.664;2022-09-02T14:09:09;20.50;99.90
52765;DHT22;38650;44.536;18.664;2022-09-02T14:11:40;20.60;99.90
52765;DHT22;38650;44.536;18.664;2022-09-02T14:14:08;20.60;99.90
52765;DHT22;38650;44.536;18.664;2022-09-02T14:16:37;20.70;99.90
52765;DHT22;38650;44.536;18.664;2022-09-02T14:21:57;21.00;99.90
52765;DHT22;38650;44.536;18.664;2022-09-02T14:24:26;20.90;99.90
52765;DHT22;38650;44.536;18.664;2022-09-02T14:26:57;20.60;99.90
52765;DHT22;38650;44.536;18.664;2022-09-02T14:29:24;20.70;99.90
52765;DHT22;38650;44.536;18.664;2022-09-02T14:32:23;20.90;99.90
52765;DHT22;38650;44.536;18.664;2022-09-02T14:35:19;21.10;99.90
52765;DHT22;38650;44.536;18.664;2022-09-02T14:37:56;21.00;99.90
52765;DHT22;38650;44.536;18.664;2022-09-02T14:40:38;21.00;99.90
52765;DHT22;38650;44.536;18.664;2022-09-02T14:43:11;20.70;99.90
52765;DHT22;38650;44.536;18.664;2022-09-02T14:45:46;20.80;99.90
52765;DHT22;38650;44.536;18.664;2022-09-02T14:48:24;20.80;99.90
52765;DHT22;38650;44.536;18.664;2022-09-02T14:51:03;20.90;99.90
52765;DHT22;38650;44.536;18.664;2022-09-02T14:53:29;20.80;99.90
52765;DHT22;38650;44.536;18.664;2022-09-02T14:55:56;20.90;99.90
52765;DHT22;38650;44.536;18.664;2022-09-02T14:58:25;20.90;99.90
52765;DHT22;38650;44.536;18.664;2022-09-02T15:00:53;21.00;99.90
52765;DHT22;38650;44.536;18.664;2022-09-02T15:03:21;20.80;99.90
52765;DHT22;38650;44.536;18.664;2022-09-02T15:05:47;20.60;99.90
52765;DHT22;38650;44.536;18.664;2022-09-02T15:08:14;20.60;99.90
52765;DHT22;38650;44.536;18.664;2022-09-02T15:10:40;20.70;99.90
52765;DHT22;38650;44.536;18.664;2022-09-02T15:13:30;20.70;99.90
52765;DHT22;38650;44.536;18.664;2022-09-02T15:15:57;20.30;99.90
52765;DHT22;38650;44.536;18.664;2022-09-02T15:18:24;20.10;99.90
52765;DHT22;38650;44.536;18.664;2022-09-02T15:20:50;20.20;99.90
52765;DHT22;38650;44.536;18.664;2022-09-02T15:23:16;20.20;99.90
52765;DHT22;38650;44.536;18.664;2022-09-02T15:25:42;20.00;99.90
52765;DHT22;38650;44.536;18.664;2022-09-02T15:28:07;20.00;99.90
52765;DHT22;38650;44.536;18.664;2022-09-02T15:30:34;19.80;99.90
52765;DHT22;38650;44.536;18.664;2022-09-02T15:33:04;19.70;99.90
52765;DHT22;38650;44.536;18.664;2022-09-02T15:35:32;19.80;99.90
52765;DHT22;38650;44.536;18.664;2022-09-02T15:37:58;19.90;99.90
52765;DHT22;38650;44.536;18.664;2022-09-02T15:40:26;20.10;99.90
52765;DHT22;38650;44.536;18.664;2022-09-02T15:42:52;20.30;99.90
52765;DHT22;38650;44.536;18.664;2022-09-02T15:45:18;20.80;99.90
52765;DHT22;38650;44.536;18.664;2022-09-02T15:47:44;21.20;99.90
52765;DHT22;38650;44.536;18.664;2022-09-02T15:50:10;21.50;99.90
52765;DHT22;38650;44.536;18.664;2022-09-02T15:52:35;21.60;99.90
52765;DHT22;38650;44.536;18.664;2022-09-02T15:55:01;21.40;99.90
52765;DHT22;38650;44.536;18.664;2022-09-02T15:57:27;21.30;99.90
52765;DHT22;38650;44.536;18.664;2022-09-02T15:59:54;21.00;99.90
52765;DHT22;38650;44.536;18.664;2022-09-02T16:02:19;20.80;99.90
52765;DHT22;38650;44.536;18.664;2022-09-02T16:04:45;20.90;99.90
52765;DHT22;38650;44.536;18.664;2022-09-02T16:07:11;21.00;99.90
52765;DHT22;38650;44.536;18.664;2022-09-02T16:09:37;21.20;99.90
52765;DHT22;38650;44.536;18.664;2022-09-02T16:12:03;21.20;99.90
52765;DHT22;38650;44.536;18.664;2022-09-02T16:14:30;21.20;99.90
52765;DHT22;38650;44.536;18.664;2022-09-02T16:16:56;21.20;99.90
52765;DHT22;38650;44.536;18.664;2022-09-02T16:19:23;21.20;99.90
52765;DHT22;38650;44.536;18.664;2022-09-02T16:21:50;21.20;99.90
52765;DHT22;38650;44.536;18.664;2022-09-02T16:24:16;21.20;99.90
52765;DHT22;38650;44.536;18.664;2022-09-02T16:26:47;21.00;99.90
52765;DHT22;38650;44.536;18.664;2022-09-02T16:29:14;20.70;99.90
52765;DHT22;38650;44.536;18.664;2022-09-02T16:31:45;20.60;99.90
52765;DHT22;38650;44.536;18.664;2022-09-02T16:34:13;20.40;99.90
52765;DHT22;38650;44.536;18.664;2022-09-02T16:36:41;20.40;99.90
52765;DHT22;38650;44.536;18.664;2022-09-02T16:39:07;20.40;99.90
52765;DHT22;38650;44.536;18.664;2022-09-02T16:41:36;20.60;99.90
52765;DHT22;38650;44.536;18.664;2022-09-02T16:44:04;20.60;99.90
52765;DHT22;38650;44.536;18.664;2022-09-02T16:46:30;20.70;99.90
52765;DHT22;38650;44.536;18.664;2022-09-02T16:48:56;20.70;99.90
52765;DHT22;38650;44.536;18.664;2022-09-02T16:51:22;20.70;99.90
52765;DHT22;38650;44.536;18.664;2022-09-02T16:53:56;20.70;99.90
52765;DHT22;38650;44.536;18.664;2022-09-02T16:56:22;20.50;99.90
52765;DHT22;38650;44.536;18.664;2022-09-02T16:58:52;20.40;99.90
52765;DHT22;38650;44.536;18.664;2022-09-02T17:01:19;20.20;99.90
52765;DHT22;38650;44.536;18.664;2022-09-02T17:03:46;20.00;99.90
52765;DHT22;38650;44.536;18.664;2022-09-02T17:06:12;19.80;99.90
52765;DHT22;38650;44.536;18.664;2022-09-02T17:08:38;19.70;99.90
52765;DHT22;38650;44.536;18.664;2022-09-02T17:11:27;19.50;99.90
52765;DHT22;38650;44.536;18.664;2022-09-02T17:13:58;19.20;99.90
52765;DHT22;38650;44.536;18.664;2022-09-02T17:16:35;18.90;99.90
52765;DHT22;38650;44.536;18.664;2022-09-02T17:19:02;18.70;99.90
52765;DHT22;38650;44.536;18.664;2022-09-02T17:21:37;18.60;99.90
52765;DHT22;38650;44.536;18.664;2022-09-02T17:24:05;18.40;99.90
52765;DHT22;38650;44.536;18.664;2022-09-02T17:26:32;18.30;99.90
52765;DHT22;38650;44.536;18.664;2022-09-02T17:28:59;18.20;99.90
52765;DHT22;38650;44.536;18.664;2022-09-02T17:31:30;18.10;99.90
52765;DHT22;38650;44.536;18.664;2022-09-02T17:33:59;18.00;99.90
52765;DHT22;38650;44.536;18.664;2022-09-02T17:36:27;17.80;99.90
52765;DHT22;38650;44.536;18.664;2022-09-02T17:39:07;17.80;99.90
52765;DHT22;38650;44.536;18.664;2022-09-02T17:41:33;17.70;99.90
52765;DHT22;38650;44.536;18.664;2022-09-02T17:44:17;17.50;99.90
52765;DHT22;38650;44.536;18.664;2022-09-02T17:46:44;17.50;99.90
52765;DHT22;38650;44.536;18.664;2022-09-02T17:49:11;17.40;99.90